createdAt,value
2022-08-17T00:00:52.348Z,38.63
2022-08-17T00:06:10.838Z,35.80
2022-08-17T00:11:34.582Z,43.10
2022-08-17T00:16:56.340Z,42.70
2022-08-17T00:22:34.903Z,37.80
2022-08-17T00:27:37.331Z,34.72
2022-08-17T00:33:14.033Z,33.22
2022-08-17T00:38:24.394Z,36.92
2022-08-17T00:44:01.895Z,40.58
2022-08-17T00:49:24.184Z,39.72
2022-08-17T00:54:42.550Z,31.15
2022-08-17T01:00:03.277Z,40.70
2022-08-17T01:05:16.002Z,33.70
2022-08-17T01:11:00.186Z,35.45
2022-08-17T01:16:28.191Z,36.85
2022-08-17T01:21:50.905Z,36.55
2022-08-17T01:32:16.225Z,33.70
2022-08-17T01:37:32.854Z,33.15
2022-08-17T01:42:49.962Z,33.38
2022-08-17T01:48:02.759Z,32.92
2022-08-17T01:53:23.586Z,36.55
2022-08-17T01:58:41.757Z,38.88
2022-08-17T02:03:59.680Z,35.22
2022-08-17T02:14:37.510Z,35.00
2022-08-17T02:19:50.350Z,37.40
2022-08-17T02:25:02.134Z,40.88
2022-08-17T02:30:59.656Z,39.40
2022-08-17T02:35:43.867Z,40.35
2022-08-17T02:40:52.718Z,35.50
2022-08-17T02:46:09.112Z,35.53
2022-08-17T02:51:23.667Z,34.63
2022-08-17T02:56:48.237Z,35.95
2022-08-17T03:01:58.868Z,34.35
2022-08-17T03:07:15.285Z,36.38
2022-08-17T03:12:22.610Z,32.60
2022-08-17T03:17:31.390Z,33.90
2022-08-17T03:22:53.049Z,36.63
2022-08-17T03:28:00.429Z,34.25
2022-08-17T03:33:16.742Z,33.95
2022-08-17T03:38:21.383Z,34.15
2022-08-17T03:43:37.085Z,36.58
2022-08-17T03:49:04.169Z,33.75
2022-08-17T03:54:33.039Z,34.92
2022-08-17T03:59:35.777Z,34.20
2022-08-17T04:04:38.336Z,34.22
2022-08-17T04:09:40.185Z,43.90
2022-08-17T04:14:53.286Z,43.33
2022-08-17T04:19:57.186Z,44.15
2022-08-17T04:24:59.490Z,47.05
2022-08-17T04:30:01.389Z,47.00
2022-08-17T04:35:03.029Z,42.83
2022-08-17T04:40:27.437Z,43.65
2022-08-17T04:45:32.119Z,49.55
2022-08-17T04:50:36.497Z,49.95
2022-08-17T04:55:42.460Z,47.28
2022-08-17T05:00:44.014Z,42.22
2022-08-17T05:05:49.693Z,41.58
2022-08-17T05:10:55.000Z,38.83
2022-08-17T05:15:59.665Z,35.75
2022-08-17T05:21:02.884Z,36.60
2022-08-17T05:26:08.584Z,38.95
2022-08-17T05:31:13.960Z,36.97
2022-08-17T05:36:42.397Z,42.13
2022-08-17T05:41:37.538Z,35.10
2022-08-17T05:46:43.655Z,35.08
2022-08-17T05:51:52.314Z,38.75
2022-08-17T05:57:12.601Z,35.43
2022-08-17T06:02:55.849Z,36.25
2022-08-17T06:08:20.690Z,37.13
2022-08-17T06:13:40.544Z,35.45
2022-08-17T06:23:59.442Z,34.35
2022-08-17T06:29:18.753Z,36.55
2022-08-17T06:34:25.938Z,38.03
2022-08-17T06:39:54.721Z,38.92
2022-08-17T06:45:17.547Z,43.20
2022-08-17T06:50:38.254Z,43.03
2022-08-17T06:55:56.381Z,45.00
2022-08-17T07:01:21.772Z,45.13
2022-08-17T07:06:30.524Z,42.00
2022-08-17T07:12:13.056Z,40.47
2022-08-17T07:17:20.894Z,44.80
2022-08-17T07:22:55.217Z,43.95
2022-08-17T07:28:00.483Z,38.92
2022-08-17T07:33:15.743Z,37.60
2022-08-17T07:38:26.823Z,40.70
2022-08-17T07:43:40.326Z,37.10
2022-08-17T07:48:52.713Z,38.35
2022-08-17T07:54:27.848Z,37.05
2022-08-17T08:00:31.994Z,39.83
2022-08-17T08:06:53.259Z,33.83
2022-08-17T08:33:06.255Z,34.05
2022-08-17T08:45:06.931Z,30.02
2022-08-17T08:50:37.429Z,28.85
2022-08-17T08:56:11.716Z,50.35
2022-08-17T09:01:35.083Z,30.63
2022-08-17T09:07:12.711Z,26.38
2022-08-17T09:12:22.664Z,28.05
2022-08-17T09:17:47.405Z,35.13
2022-08-17T09:23:58.306Z,28.27
2022-08-17T09:29:36.629Z,25.38
2022-08-17T09:47:38.227Z,25.73
2022-08-17T09:52:59.166Z,20.95
2022-08-17T09:58:25.648Z,25.40
2022-08-17T10:03:42.445Z,23.50
2022-08-17T10:09:08.846Z,21.30
2022-08-17T10:14:43.549Z,23.20
2022-08-17T10:20:15.132Z,23.83
2022-08-17T10:25:53.946Z,22.23
2022-08-17T10:36:57.618Z,23.90
2022-08-17T10:42:16.061Z,20.90
2022-08-17T10:48:06.104Z,21.67
2022-08-17T10:53:08.785Z,21.30
2022-08-17T10:58:21.896Z,19.45
2022-08-17T11:03:26.603Z,19.30
2022-08-17T11:09:00.869Z,19.15
2022-08-17T11:14:21.743Z,19.63
2022-08-17T11:19:42.117Z,20.52
2022-08-17T11:24:48.239Z,19.35
2022-08-17T11:30:01.529Z,26.02
2022-08-17T11:35:22.418Z,15.30
2022-08-17T11:40:54.938Z,27.92
2022-08-17T11:46:53.969Z,16.35
2022-08-17T11:52:03.969Z,16.57
2022-08-17T11:57:27.322Z,12.50
2022-08-17T12:02:35.362Z,13.00
2022-08-17T12:07:42.966Z,13.98
2022-08-17T12:12:46.695Z,13.65
2022-08-17T12:17:55.689Z,15.63
2022-08-17T12:23:25.595Z,16.95
2022-08-17T12:28:36.133Z,13.05
2022-08-17T12:33:43.878Z,16.83
2022-08-17T12:43:58.725Z,15.55
2022-08-17T12:54:31.467Z,12.55
2022-08-17T12:59:33.227Z,12.27
2022-08-17T13:04:39.336Z,14.82
2022-08-17T13:09:51.245Z,16.13
2022-08-17T13:14:52.879Z,10.25
2022-08-17T13:19:54.780Z,12.63
2022-08-17T13:25:03.714Z,10.85
2022-08-17T13:30:12.041Z,11.23
2022-08-17T13:35:36.419Z,9.55
2022-08-17T13:40:50.073Z,12.17
2022-08-17T13:45:56.078Z,9.75
2022-08-17T13:50:57.771Z,17.10
2022-08-17T13:56:37.746Z,12.10
2022-08-17T14:01:53.381Z,11.32
2022-08-17T14:12:05.923Z,11.02
2022-08-17T14:17:07.989Z,11.88
2022-08-17T14:22:18.359Z,12.77
2022-08-17T14:27:21.027Z,12.73
2022-08-17T14:32:29.461Z,12.40
2022-08-17T14:37:35.097Z,12.85
2022-08-17T14:43:05.531Z,14.45
2022-08-17T14:48:46.256Z,9.70
2022-08-17T14:53:50.425Z,6.70
2022-08-17T14:58:52.158Z,14.00
2022-08-17T15:03:53.976Z,10.55
2022-08-17T15:09:17.721Z,9.73
2022-08-17T15:14:20.235Z,7.80
2022-08-17T15:19:22.201Z,9.88
2022-08-17T15:24:24.025Z,10.07
2022-08-17T15:29:25.546Z,8.65
2022-08-17T15:34:27.114Z,8.15
2022-08-17T15:39:28.758Z,8.40
2022-08-17T15:44:34.760Z,9.18
2022-08-17T15:49:40.761Z,8.52
2022-08-17T15:54:42.767Z,9.90
2022-08-17T15:59:52.076Z,9.75
2022-08-17T16:05:13.932Z,10.68
2022-08-17T16:10:19.176Z,12.38
2022-08-17T16:15:23.123Z,12.93
2022-08-17T16:20:25.177Z,15.15
2022-08-17T16:25:49.694Z,11.55
2022-08-17T16:30:52.898Z,13.27
2022-08-17T16:36:03.400Z,12.20
2022-08-17T16:41:06.326Z,13.80
2022-08-17T16:46:07.925Z,12.68
2022-08-17T16:51:09.701Z,13.95
2022-08-17T16:56:11.575Z,13.43
2022-08-17T17:01:13.786Z,14.00
2022-08-17T17:06:22.769Z,16.80
2022-08-17T17:11:40.905Z,17.27
2022-08-17T17:16:57.597Z,14.65
2022-08-17T17:22:12.574Z,13.35
2022-08-17T17:27:47.575Z,16.30
2022-08-17T17:33:13.592Z,17.95
2022-08-17T17:38:29.195Z,16.33
2022-08-17T17:43:40.599Z,14.63
2022-08-17T17:48:42.580Z,14.50
2022-08-17T17:53:59.436Z,14.80
2022-08-17T17:59:26.637Z,13.40
2022-08-17T18:04:58.752Z,13.95
2022-08-17T18:10:19.427Z,15.32
2022-08-17T18:15:29.527Z,11.50
2022-08-17T18:20:43.242Z,11.50
2022-08-17T18:25:54.461Z,12.82
2022-08-17T18:31:07.876Z,12.32
2022-08-17T18:36:11.354Z,14.98
2022-08-17T18:41:30.267Z,18.15
2022-08-17T18:46:36.576Z,17.25
2022-08-17T18:51:43.191Z,15.02
2022-08-17T18:57:00.775Z,15.40
2022-08-17T19:02:20.737Z,21.15
2022-08-17T19:07:48.196Z,13.45
2022-08-17T19:35:05.971Z,12.88
2022-08-17T19:40:29.261Z,13.32
2022-08-17T19:45:56.925Z,16.17
2022-08-17T19:51:09.161Z,16.25
2022-08-17T19:56:25.618Z,14.27
2022-08-17T20:01:39.845Z,13.68
2022-08-17T20:06:46.664Z,13.77
2022-08-17T20:11:58.551Z,12.98
2022-08-17T20:17:03.026Z,15.02
2022-08-17T20:22:17.487Z,15.70
2022-08-17T20:27:29.512Z,14.10
2022-08-17T20:32:53.681Z,14.82
2022-08-17T20:37:59.105Z,15.40
2022-08-17T20:43:29.613Z,17.83
2022-08-17T20:48:39.856Z,15.40
2022-08-17T20:53:48.024Z,14.07
2022-08-17T20:58:49.638Z,13.98
2022-08-17T21:03:52.648Z,16.63
2022-08-17T21:09:15.744Z,17.83
2022-08-17T21:14:43.057Z,20.10
2022-08-17T21:20:11.923Z,18.95
2022-08-17T21:25:41.772Z,26.48
2022-08-17T21:30:49.044Z,20.00
2022-08-17T21:35:52.260Z,19.20
2022-08-17T21:40:55.058Z,20.23
2022-08-17T21:46:01.039Z,24.42
2022-08-17T21:51:17.641Z,18.92
2022-08-17T21:56:30.216Z,19.35
2022-08-17T22:01:34.644Z,27.77
2022-08-17T22:06:41.222Z,18.08
2022-08-17T22:12:02.111Z,15.80
2022-08-17T22:17:21.053Z,24.10
2022-08-17T22:22:31.190Z,27.90
2022-08-17T22:27:46.298Z,24.90
2022-08-17T22:32:49.259Z,20.95
2022-08-17T22:37:51.640Z,25.75
2022-08-17T22:42:53.496Z,22.10
2022-08-17T22:48:01.948Z,22.83
2022-08-17T22:53:34.041Z,26.17
2022-08-17T22:59:02.347Z,24.35
2022-08-17T23:04:11.547Z,23.77
2022-08-17T23:09:13.183Z,27.63
2022-08-17T23:14:15.819Z,32.47
2022-08-17T23:19:20.863Z,23.58
2022-08-17T23:24:26.177Z,25.08
2022-08-17T23:29:29.389Z,29.13
2022-08-17T23:34:31.192Z,21.67
2022-08-17T23:39:32.957Z,25.00
2022-08-17T23:44:36.970Z,26.40
2022-08-17T23:49:40.288Z,27.45
2022-08-17T23:54:46.409Z,30.73
2022-08-17T23:59:48.736Z,30.40
